createdAt,value
2022-10-11T00:00:15.609Z,8.87
2022-10-11T00:05:18.612Z,8.82
2022-10-11T00:10:22.517Z,8.80
2022-10-11T00:15:26.678Z,8.75
2022-10-11T00:20:29.570Z,8.76
2022-10-11T00:25:32.377Z,8.72
2022-10-11T00:30:36.530Z,8.68
2022-10-11T00:35:41.374Z,8.62
2022-10-11T00:40:44.272Z,8.62
2022-10-11T00:46:26.001Z,8.64
2022-10-11T00:51:39.837Z,8.55
2022-10-11T00:56:44.941Z,8.74
2022-10-11T01:01:49.157Z,8.91
2022-10-11T01:06:54.396Z,8.83
2022-10-11T01:12:00.452Z,8.80
2022-10-11T01:17:14.910Z,8.65
2022-10-11T01:22:36.308Z,8.65
2022-10-11T01:27:54.757Z,8.62
2022-10-11T01:33:18.769Z,8.63
2022-10-11T01:38:29.874Z,8.60
2022-10-11T01:43:35.009Z,8.46
2022-10-11T01:48:50.054Z,8.45
2022-10-11T01:54:35.240Z,8.36
2022-10-11T01:59:59.963Z,8.36
2022-10-11T02:05:10.489Z,8.22
2022-10-11T02:10:18.737Z,8.17
2022-10-11T02:15:23.766Z,8.21
2022-10-11T02:20:31.564Z,8.24
2022-10-11T02:25:37.199Z,8.31
2022-10-11T02:30:43.426Z,8.26
2022-10-11T02:35:53.173Z,8.22
2022-10-11T02:40:59.687Z,8.19
2022-10-11T02:46:04.034Z,8.23
2022-10-11T02:51:14.112Z,8.20
2022-10-11T02:56:16.873Z,8.10
2022-10-11T03:01:19.722Z,8.03
2022-10-11T03:06:24.148Z,7.95
2022-10-11T03:11:27.001Z,7.90
2022-10-11T03:16:29.798Z,7.92
2022-10-11T03:21:33.981Z,7.93
2022-10-11T03:26:36.783Z,7.92
2022-10-11T03:31:40.213Z,7.90
2022-10-11T03:36:44.406Z,7.99
2022-10-11T03:41:47.229Z,8.16
2022-10-11T03:46:49.996Z,8.12
2022-10-11T03:51:54.087Z,8.13
2022-10-11T03:56:58.169Z,8.11
2022-10-11T04:02:01.091Z,8.08
2022-10-11T04:07:05.361Z,8.08
2022-10-11T04:12:08.362Z,7.95
2022-10-11T04:17:11.530Z,7.92
2022-10-11T04:22:15.735Z,7.99
2022-10-11T04:27:18.480Z,8.13
2022-10-11T04:32:21.333Z,8.17
2022-10-11T04:37:25.559Z,8.03
2022-10-11T04:42:28.357Z,7.92
2022-10-11T04:47:31.085Z,7.94
2022-10-11T04:52:35.184Z,7.80
2022-10-11T04:57:37.919Z,7.76
2022-10-11T05:02:40.628Z,7.74
2022-10-11T05:07:44.965Z,7.71
2022-10-11T05:12:47.783Z,7.74
2022-10-11T05:17:50.679Z,7.74
2022-10-11T05:22:55.079Z,7.74
2022-10-11T05:27:58.051Z,7.79
2022-10-11T05:33:00.942Z,7.70
2022-10-11T05:38:05.089Z,7.72
2022-10-11T05:43:08.589Z,7.71
2022-10-11T05:48:12.306Z,7.78
2022-10-11T05:53:17.809Z,7.76
2022-10-11T05:58:20.617Z,7.79
2022-10-11T06:03:24.158Z,7.85
2022-10-11T06:08:28.214Z,8.22
2022-10-11T06:13:31.029Z,8.46
2022-10-11T06:18:33.794Z,8.86
2022-10-11T06:23:37.962Z,9.15
2022-10-11T06:28:40.828Z,9.23
2022-10-11T06:33:43.771Z,9.63
2022-10-11T06:38:47.975Z,9.60
2022-10-11T06:43:50.803Z,9.65
2022-10-11T06:48:54.061Z,9.80
2022-10-11T06:54:01.783Z,10.71
2022-10-11T06:59:04.660Z,11.73
2022-10-11T07:04:08.091Z,11.98
2022-10-11T07:09:12.413Z,12.90
2022-10-11T07:14:15.222Z,13.09
2022-10-11T07:19:17.951Z,12.10
2022-10-11T07:24:22.098Z,11.60
2022-10-11T07:29:24.898Z,11.04
2022-10-11T07:34:27.716Z,10.58
2022-10-11T07:39:32.042Z,10.42
2022-10-11T07:44:35.044Z,10.61
2022-10-11T07:49:37.865Z,10.74
2022-10-11T07:54:42.129Z,10.79
2022-10-11T07:59:50.011Z,10.83
2022-10-11T08:04:53.127Z,10.52
2022-10-11T08:09:57.896Z,10.84
2022-10-11T08:15:01.399Z,11.26
2022-10-11T08:20:04.667Z,11.12
2022-10-11T08:25:09.477Z,11.29
2022-10-11T08:30:13.602Z,11.45
2022-10-11T08:35:16.560Z,11.93
2022-10-11T08:40:22.711Z,12.04
2022-10-11T08:45:32.251Z,11.96
2022-10-11T08:50:41.035Z,12.17
2022-10-11T08:55:49.106Z,12.19
2022-10-11T09:00:55.206Z,12.55
2022-10-11T09:06:09.000Z,12.73
2022-10-11T09:11:21.269Z,12.95
2022-10-11T09:16:32.978Z,12.93
2022-10-11T09:21:48.382Z,12.92
2022-10-11T09:26:56.983Z,13.20
2022-10-11T09:32:00.385Z,13.17
2022-10-11T09:37:12.416Z,13.17
2022-10-11T09:42:16.500Z,13.22
2022-10-11T09:47:23.514Z,13.28
2022-10-11T09:52:27.143Z,13.48
2022-10-11T09:57:33.225Z,13.60
2022-10-11T10:02:47.525Z,14.13
2022-10-11T10:08:22.414Z,14.84
2022-10-11T10:13:30.102Z,15.56
2022-10-11T10:18:35.966Z,15.57
2022-10-11T10:23:39.098Z,15.66
2022-10-11T10:28:58.014Z,15.21
2022-10-11T10:34:02.281Z,14.91
2022-10-11T10:39:17.251Z,14.79
2022-10-11T10:44:21.491Z,15.43
2022-10-11T10:54:57.513Z,16.27
2022-10-11T11:00:13.702Z,16.22
2022-10-11T11:05:28.414Z,16.24
2022-10-11T11:10:37.698Z,16.17
2022-10-11T11:15:47.946Z,16.15
2022-10-11T11:21:06.075Z,16.07
2022-10-11T11:26:18.306Z,16.28
2022-10-11T11:31:38.604Z,16.32
2022-10-11T11:36:45.731Z,15.84
2022-10-11T11:41:54.498Z,15.89
2022-10-11T11:47:02.001Z,15.79
2022-10-11T11:52:07.519Z,15.99
2022-10-11T11:57:23.225Z,15.78
2022-10-11T12:02:42.568Z,15.78
2022-10-11T12:07:56.426Z,15.56
2022-10-11T12:13:20.277Z,15.74
2022-10-11T12:18:24.670Z,15.48
2022-10-11T12:23:43.360Z,15.72
2022-10-11T12:29:03.693Z,15.68
2022-10-11T12:34:35.304Z,15.72
2022-10-11T12:39:51.234Z,15.87
2022-10-11T12:45:30.602Z,15.73
2022-10-11T12:50:45.811Z,15.26
2022-10-11T12:55:58.935Z,14.96
2022-10-11T13:01:12.987Z,14.70
2022-10-11T13:06:20.694Z,14.62
2022-10-11T13:11:26.353Z,14.53
2022-10-11T13:16:31.265Z,14.41
2022-10-11T13:21:38.603Z,14.38
2022-10-11T13:26:42.050Z,14.54
2022-10-11T13:31:47.585Z,14.26
2022-10-11T13:36:56.426Z,14.34
2022-10-11T13:42:00.626Z,14.41
2022-10-11T13:47:07.230Z,14.59
2022-10-11T13:52:23.349Z,14.65
2022-10-11T13:57:35.929Z,14.48
2022-10-11T14:02:39.412Z,14.90
2022-10-11T14:07:43.616Z,15.16
2022-10-11T14:13:00.333Z,15.27
2022-10-11T14:18:24.457Z,15.15
2022-10-11T14:23:28.645Z,14.80
2022-10-11T14:28:31.663Z,14.70
2022-10-11T14:33:35.078Z,14.63
2022-10-11T14:38:39.219Z,14.64
2022-10-11T14:43:42.033Z,14.67
2022-10-11T14:48:55.048Z,14.73
2022-10-11T14:53:59.945Z,14.50
2022-10-11T14:59:02.756Z,14.48
2022-10-11T15:04:05.801Z,14.54
2022-10-11T15:09:10.174Z,14.59
2022-10-11T15:14:13.000Z,14.63
2022-10-11T15:19:17.988Z,14.63
2022-10-11T15:24:22.093Z,14.69
2022-10-11T15:29:26.826Z,14.62
2022-10-11T15:34:29.553Z,14.59
2022-10-11T15:39:33.885Z,14.37
2022-10-11T15:44:36.659Z,14.24
2022-10-11T15:49:39.448Z,14.25
2022-10-11T15:54:43.649Z,14.10
2022-10-11T15:59:46.481Z,13.97
2022-10-11T16:04:49.278Z,13.98
2022-10-11T16:09:53.880Z,13.96
2022-10-11T16:14:56.981Z,14.05
2022-10-11T16:20:03.040Z,13.96
2022-10-11T16:25:07.856Z,13.82
2022-10-11T16:30:12.763Z,13.88
2022-10-11T16:35:16.655Z,13.96
2022-10-11T16:40:22.053Z,14.11
2022-10-11T16:45:24.888Z,13.98
2022-10-11T16:50:29.078Z,13.76
2022-10-11T16:55:33.193Z,13.59
2022-10-11T17:00:42.644Z,13.49
2022-10-11T17:05:45.749Z,13.42
2022-10-11T17:10:57.861Z,13.53
2022-10-11T17:16:00.933Z,13.45
2022-10-11T17:21:04.644Z,13.38
2022-10-11T17:26:11.903Z,13.31
2022-10-11T17:31:14.936Z,13.31
2022-10-11T17:36:22.484Z,13.30
2022-10-11T17:41:31.613Z,13.30
2022-10-11T17:46:34.928Z,13.19
2022-10-11T17:51:38.342Z,13.20
2022-10-11T17:56:43.571Z,13.19
2022-10-11T18:01:46.418Z,13.14
2022-10-11T18:06:49.705Z,13.24
2022-10-11T18:11:54.021Z,13.25
2022-10-11T18:16:57.820Z,13.06
2022-10-11T18:22:05.858Z,12.85
2022-10-11T18:27:11.161Z,12.92
2022-10-11T18:32:14.164Z,12.90
2022-10-11T18:37:17.366Z,12.72
2022-10-11T18:42:21.620Z,12.44
2022-10-11T18:47:24.444Z,12.18
2022-10-11T18:52:27.932Z,11.96
2022-10-11T18:57:32.355Z,11.76
2022-10-11T19:02:38.032Z,11.65
2022-10-11T19:07:41.621Z,11.56
2022-10-11T19:12:45.763Z,11.41
2022-10-11T19:17:48.565Z,11.29
2022-10-11T19:22:51.409Z,11.19
2022-10-11T19:27:55.707Z,11.07
2022-10-11T19:32:58.520Z,11.06
2022-10-11T19:38:01.374Z,11.00
2022-10-11T19:43:05.616Z,10.98
2022-10-11T19:48:08.396Z,10.95
2022-10-11T19:53:13.632Z,10.92
2022-10-11T19:58:17.835Z,10.85
2022-10-11T20:03:20.622Z,10.74
2022-10-11T20:08:23.830Z,10.59
2022-10-11T20:13:32.532Z,10.54
2022-10-11T20:18:38.764Z,10.54
2022-10-11T20:23:43.677Z,10.37
2022-10-11T20:28:53.590Z,10.44
2022-10-11T20:34:01.261Z,10.38
2022-10-11T20:39:05.416Z,10.27
2022-10-11T20:44:11.187Z,10.23
2022-10-11T20:49:14.095Z,10.12
2022-10-11T20:54:17.125Z,10.06
2022-10-11T20:59:21.327Z,10.02
2022-10-11T21:04:24.106Z,9.91
2022-10-11T21:09:26.816Z,9.88
2022-10-11T21:14:31.051Z,9.81
2022-10-11T21:19:33.764Z,9.77
2022-10-11T21:24:36.474Z,9.76
2022-10-11T21:29:40.618Z,9.74
2022-10-11T21:34:43.405Z,9.65
2022-10-11T21:39:46.129Z,9.54
2022-10-11T21:44:50.188Z,9.51
2022-10-11T21:49:52.946Z,9.44
2022-10-11T21:54:55.891Z,9.40
2022-10-11T22:00:00.038Z,9.50
2022-10-11T22:05:02.749Z,9.49
2022-10-11T22:10:06.022Z,9.39
2022-10-11T22:15:11.258Z,9.27
2022-10-11T22:20:14.032Z,9.24
2022-10-11T22:25:16.888Z,9.19
2022-10-11T22:30:21.210Z,9.08
2022-10-11T22:35:24.434Z,9.08
2022-10-11T22:40:27.316Z,9.11
2022-10-11T22:45:31.454Z,9.23
2022-10-11T22:50:34.363Z,9.18
2022-10-11T22:55:37.672Z,9.16
2022-10-11T23:00:41.798Z,9.16
2022-10-11T23:05:44.574Z,9.17
2022-10-11T23:10:47.312Z,9.03
2022-10-11T23:15:51.382Z,8.93
2022-10-11T23:20:54.088Z,8.84
2022-10-11T23:26:04.681Z,8.82
2022-10-11T23:31:10.035Z,8.82
2022-10-11T23:36:16.513Z,8.88
2022-10-11T23:41:19.248Z,8.74
2022-10-11T23:46:23.514Z,8.72
2022-10-11T23:51:26.305Z,8.76
2022-10-11T23:56:29.149Z,8.91
